Time;durP1;ratioP1;P1;durP2;ratioP2;P2;SDS_P1;SDS_P2;PMS_P1;PMS_P2;Temp;Humidity;BMP_temperature;BMP_pressure;BME280_temperature;BME280_humidity;BME280_pressure;Samples;Min_cycle;Max_cycle;Signal;HPM_P1;HPM_P2
2021/06/23 00:01:16;;;;;;;5.30;0.80;;;;;;;;;;4905161;29;20050;-59
2021/06/23 00:03:42;;;;;;;2.55;0.65;;;;;;;;;;4903568;29;20044;-60
2021/06/23 00:06:08;;;;;;;1.33;0.50;;;;;;;;;;4906093;29;20048;-59
2021/06/23 00:08:33;;;;;;;1.83;0.55;;;;;;;;;;4905832;29;20036;-58
2021/06/23 00:11:00;;;;;;;1.92;0.60;;;;;;;;;;4908124;29;20040;-58
2021/06/23 00:13:28;;;;;;;2.28;0.60;;;;;;;;;;4908040;29;20552;-59
2021/06/23 00:15:54;;;;;;;3.20;0.70;;;;;;;;;;4910021;29;20059;-59
2021/06/23 00:18:20;;;;;;;3.47;0.60;;;;;;;;;;4908718;29;20052;-59
2021/06/23 00:20:45;;;;;;;5.47;0.70;;;;;;;;;;4910443;29;20145;-61
2021/06/23 00:23:11;;;;;;;2.00;0.60;;;;;;;;;;4891068;29;20058;-57
2021/06/23 00:25:37;;;;;;;0.93;0.40;;;;;;;;;;4908466;29;20107;-59
2021/06/23 00:28:03;;;;;;;2.38;0.60;;;;;;;;;;4910922;29;20040;-59
2021/06/23 00:30:29;;;;;;;1.42;0.55;;;;;;;;;;4906335;29;20589;-59
2021/06/23 00:32:55;;;;;;;2.60;0.60;;;;;;;;;;4909114;29;20040;-59
2021/06/23 00:35:21;;;;;;;2.08;0.60;;;;;;;;;;4908091;29;20055;-59
2021/06/23 00:37:47;;;;;;;2.58;0.70;;;;;;;;;;4908129;29;20048;-59
2021/06/23 00:40:14;;;;;;;2.28;0.60;;;;;;;;;;4909485;29;20095;-60
2021/06/23 00:42:41;;;;;;;1.92;0.60;;;;;;;;;;4909339;29;20059;-58
2021/06/23 00:45:08;;;;;;;2.45;0.65;;;;;;;;;;4909533;29;20040;-58
2021/06/23 00:47:34;;;;;;;2.47;0.52;;;;;;;;;;4909175;29;20048;-58
2021/06/23 00:50:09;;;;;;;4.35;0.50;;;;;;;;;;4908697;29;20044;-58
2021/06/23 00:52:35;;;;;;;1.63;0.60;;;;;;;;;;4908951;29;20402;-58
2021/06/23 00:55:01;;;;;;;3.50;0.80;;;;;;;;;;4909453;29;20059;-59
2021/06/23 00:57:27;;;;;;;2.13;0.60;;;;;;;;;;4908614;29;20047;-59
2021/06/23 00:59:55;;;;;;;1.98;0.60;;;;;;;;;;4908087;29;20046;-59
2021/06/23 01:02:21;;;;;;;5.03;0.63;;;;;;;;;;4907499;29;20040;-59
2021/06/23 01:04:49;;;;;;;3.60;0.60;;;;;;;;;;4908091;29;20789;-58
2021/06/23 01:07:15;;;;;;;2.40;0.65;;;;;;;;;;4907954;29;20378;-59
2021/06/23 01:09:45;;;;;;;1.48;0.50;;;;;;;;;;4907595;29;20506;-59
2021/06/23 01:12:16;;;;;;;2.15;0.77;;;;;;;;;;4907289;29;20055;-59
2021/06/23 01:14:42;;;;;;;1.85;0.70;;;;;;;;;;4907990;29;20559;-57
2021/06/23 01:17:09;;;;;;;1.75;0.55;;;;;;;;;;4905963;29;20052;-58
2021/06/23 01:19:37;;;;;;;3.67;0.70;;;;;;;;;;4907165;29;20174;-59
2021/06/23 01:22:03;;;;;;;2.50;0.75;;;;;;;;;;4890091;29;20058;-61
2021/06/23 01:24:30;;;;;;;1.50;0.50;;;;;;;;;;4890332;29;20047;-60
2021/06/23 01:26:56;;;;;;;1.65;0.50;;;;;;;;;;4907388;29;20139;-60
2021/06/23 01:29:22;;;;;;;2.10;0.60;;;;;;;;;;4887334;29;20044;-60
2021/06/23 01:31:48;;;;;;;4.88;0.60;;;;;;;;;;4907438;29;20143;-59
2021/06/23 01:34:14;;;;;;;2.03;0.50;;;;;;;;;;4891941;29;20032;-59
2021/06/23 01:36:40;;;;;;;1.85;0.57;;;;;;;;;;4906294;29;20527;-59
2021/06/23 01:39:06;;;;;;;1.95;0.65;;;;;;;;;;4858686;29;20358;-57
2021/06/23 01:41:32;;;;;;;2.03;0.57;;;;;;;;;;4858136;29;20619;-58
2021/06/23 01:43:58;;;;;;;2.40;0.52;;;;;;;;;;4841893;29;20531;-59
2021/06/23 01:46:24;;;;;;;3.45;0.70;;;;;;;;;;4857212;29;20044;-60
2021/06/23 01:48:50;;;;;;;2.55;0.60;;;;;;;;;;4859725;29;20074;-60
2021/06/23 01:51:15;;;;;;;2.60;0.82;;;;;;;;;;4860575;29;20045;-58
2021/06/23 01:53:41;;;;;;;2.15;0.73;;;;;;;;;;4857892;29;20143;-60
2021/06/23 01:56:07;;;;;;;3.42;0.75;;;;;;;;;;4858232;29;20125;-60
2021/06/23 01:58:40;;;;;;;1.90;0.70;;;;;;;;;;4858621;29;20052;-59
2021/06/23 02:01:08;;;;;;;2.13;0.57;;;;;;;;;;4859527;29;20527;-59
2021/06/23 02:03:34;;;;;;;2.72;0.70;;;;;;;;;;4858439;29;20045;-59
2021/06/23 02:06:04;;;;;;;1.75;0.55;;;;;;;;;;4857994;29;20037;-61
2021/06/23 02:08:36;;;;;;;1.48;0.50;;;;;;;;;;4856850;29;20074;-60
2021/06/23 02:11:03;;;;;;;;;;;;;;;;;;4840013;29;20044;-60
2021/06/23 02:13:29;;;;;;;3.88;0.50;;;;;;;;;;4855909;29;19927;-60
2021/06/23 02:16:02;;;;;;;1.73;0.57;;;;;;;;;;4867079;29;20122;-59
2021/06/23 02:18:28;;;;;;;1.70;0.60;;;;;;;;;;4905398;29;20588;-60
2021/06/23 02:20:56;;;;;;;1.40;0.50;;;;;;;;;;4906714;29;20051;-60
2021/06/23 02:23:22;;;;;;;1.67;0.50;;;;;;;;;;4905158;29;20435;-59
2021/06/23 02:25:48;;;;;;;1.45;0.60;;;;;;;;;;4906289;29;20531;-60
2021/06/23 02:28:14;;;;;;;3.38;0.60;;;;;;;;;;4906248;29;20187;-59
2021/06/23 02:30:40;;;;;;;2.13;0.70;;;;;;;;;;4904361;29;20042;-62
2021/06/23 02:33:07;;;;;;;3.50;0.60;;;;;;;;;;4904801;29;20409;-60
2021/06/23 02:35:33;;;;;;;2.70;0.75;;;;;;;;;;4904980;29;20120;-60
2021/06/23 02:37:59;;;;;;;1.63;0.50;;;;;;;;;;4905227;29;20584;-60
2021/06/23 02:40:25;;;;;;;3.72;0.70;;;;;;;;;;4903899;29;20453;-61
2021/06/23 02:42:51;;;;;;;3.42;0.70;;;;;;;;;;4904306;29;20040;-61
2021/06/23 02:45:17;;;;;;;2.10;0.60;;;;;;;;;;4904219;29;20346;-61
2021/06/23 02:47:43;;;;;;;1.88;0.73;;;;;;;;;;4886801;29;20041;-61
2021/06/23 02:50:09;;;;;;;1.98;0.68;;;;;;;;;;4906254;29;20143;-61
2021/06/23 02:52:36;;;;;;;1.65;0.60;;;;;;;;;;4903888;29;20108;-62
2021/06/23 02:55:05;;;;;;;2.47;0.70;;;;;;;;;;4904559;29;20040;-61
2021/06/23 02:57:33;;;;;;;3.30;0.60;;;;;;;;;;4903633;29;20054;-61
2021/06/23 02:59:59;;;;;;;2.55;0.77;;;;;;;;;;4905065;29;20044;-61
2021/06/23 03:02:25;;;;;;;2.65;0.80;;;;;;;;;;4903440;29;20048;-61
2021/06/23 03:04:51;;;;;;;3.80;0.70;;;;;;;;;;4903289;29;20050;-61
2021/06/23 03:07:17;;;;;;;2.15;0.70;;;;;;;;;;4904167;29;21033;-61
2021/06/23 03:09:44;;;;;;;3.70;0.60;;;;;;;;;;4904118;29;20044;-61
2021/06/23 03:12:10;;;;;;;2.17;0.80;;;;;;;;;;4904209;29;20390;-61
2021/06/23 03:14:37;;;;;;;1.63;0.50;;;;;;;;;;4904243;29;20052;-62
2021/06/23 03:17:03;;;;;;;1.85;0.60;;;;;;;;;;4904615;29;20051;-61
2021/06/23 03:19:28;;;;;;;2.80;0.90;;;;;;;;;;4904368;29;20040;-61
2021/06/23 03:21:54;;;;;;;2.20;0.70;;;;;;;;;;4906047;29;20051;-62
2021/06/23 03:24:21;;;;;;;3.92;0.73;;;;;;;;;;4902467;29;20056;-62
2021/06/23 03:26:47;;;;;;;2.45;0.70;;;;;;;;;;4905492;29;20036;-62
2021/06/23 03:29:33;;;;;;;3.97;0.63;;;;;;;;;;4905627;29;20044;-60
2021/06/23 03:32:00;;;;;;;3.33;0.68;;;;;;;;;;4908204;29;20048;-61
2021/06/23 03:34:26;;;;;;;2.03;0.68;;;;;;;;;;4906110;29;20035;-61
2021/06/23 03:36:52;;;;;;;3.90;0.70;;;;;;;;;;4904191;29;20055;-60
2021/06/23 03:39:18;;;;;;;4.25;0.80;;;;;;;;;;4904707;29;20459;-61
2021/06/23 03:41:44;;;;;;;2.60;0.70;;;;;;;;;;4902747;29;20673;-62
2021/06/23 03:44:10;;;;;;;2.60;0.70;;;;;;;;;;4904986;29;20044;-62
2021/06/23 03:46:36;;;;;;;3.45;0.98;;;;;;;;;;4910182;29;20048;-62
2021/06/23 03:49:02;;;;;;;4.38;0.60;;;;;;;;;;4908377;29;20067;-62
2021/06/23 03:51:28;;;;;;;2.10;0.70;;;;;;;;;;4905567;29;20048;-61
2021/06/23 03:53:54;;;;;;;2.25;0.60;;;;;;;;;;4906809;29;20046;-61
2021/06/23 03:56:20;;;;;;;2.15;0.60;;;;;;;;;;4905139;29;20032;-62
2021/06/23 03:58:46;;;;;;;4.47;0.70;;;;;;;;;;4907879;29;20059;-62
2021/06/23 04:01:12;;;;;;;1.77;0.50;;;;;;;;;;4906617;29;20138;-62
2021/06/23 04:03:37;;;;;;;1.90;0.60;;;;;;;;;;4905424;29;20063;-62
2021/06/23 04:06:03;;;;;;;3.17;0.63;;;;;;;;;;4906996;29;20609;-62
2021/06/23 04:08:29;;;;;;;2.50;0.63;;;;;;;;;;4906265;29;20032;-61
2021/06/23 04:10:55;;;;;;;4.28;0.70;;;;;;;;;;4886366;29;20302;-62
2021/06/23 04:13:21;;;;;;;2.15;0.77;;;;;;;;;;4905221;29;20047;-61
2021/06/23 04:15:47;;;;;;;3.75;0.77;;;;;;;;;;4907463;29;20059;-63
2021/06/23 04:18:13;;;;;;;3.13;0.70;;;;;;;;;;4908102;29;20115;-60
2021/06/23 04:20:39;;;;;;;4.43;0.90;;;;;;;;;;4906186;29;20431;-60
2021/06/23 04:23:05;;;;;;;2.40;0.60;;;;;;;;;;4906766;29;20043;-62
2021/06/23 04:25:31;;;;;;;3.55;0.70;;;;;;;;;;4904947;29;20040;-62
2021/06/23 04:27:56;;;;;;;4.50;0.60;;;;;;;;;;4907151;29;20047;-62
2021/06/23 04:30:22;;;;;;;7.85;0.90;;;;;;;;;;4907558;29;20051;-59
2021/06/23 04:32:48;;;;;;;2.50;0.70;;;;;;;;;;4909689;29;20048;-60
2021/06/23 04:35:14;;;;;;;6.22;1.02;;;;;;;;;;4905645;29;20043;-56
2021/06/23 04:37:41;;;;;;;4.95;0.80;;;;;;;;;;4905561;29;20086;-58
2021/06/23 04:40:09;;;;;;;3.38;0.85;;;;;;;;;;4906579;29;20040;-63
2021/06/23 04:42:36;;;;;;;4.05;1.48;;;;;;;;;;4907569;29;20036;-62
2021/06/23 04:45:04;;;;;;;4.40;0.98;;;;;;;;;;4907090;29;20040;-58
2021/06/23 04:47:30;;;;;;;3.58;0.70;;;;;;;;;;4905707;29;20674;-57
2021/06/23 04:49:56;;;;;;;2.72;0.75;;;;;;;;;;4897002;29;20036;-58
2021/06/23 04:52:22;;;;;;;2.72;0.65;;;;;;;;;;4905791;29;20052;-58
2021/06/23 04:54:48;;;;;;;2.05;0.70;;;;;;;;;;4904358;29;20409;-56
2021/06/23 04:57:14;;;;;;;2.45;0.70;;;;;;;;;;4904987;29;20047;-58
2021/06/23 04:59:39;;;;;;;2.22;0.70;;;;;;;;;;4907728;29;20054;-61
2021/06/23 05:02:05;;;;;;;2.50;0.70;;;;;;;;;;4887499;29;20141;-58
2021/06/23 05:04:31;;;;;;;2.22;0.85;;;;;;;;;;4906106;29;20763;-58
2021/06/23 05:06:57;;;;;;;2.97;0.73;;;;;;;;;;4907198;29;20044;-59
2021/06/23 05:09:23;;;;;;;2.95;0.98;;;;;;;;;;4905719;29;20055;-58
2021/06/23 05:11:49;;;;;;;3.63;0.80;;;;;;;;;;4907360;29;20623;-59
2021/06/23 05:14:14;;;;;;;12.10;1.02;;;;;;;;;;4907404;29;20040;-60
2021/06/23 05:16:40;;;;;;;4.65;0.90;;;;;;;;;;4906543;29;20402;-60
2021/06/23 05:19:06;;;;;;;5.38;0.93;;;;;;;;;;4906542;29;20458;-59
2021/06/23 05:21:33;;;;;;;7.03;1.20;;;;;;;;;;4908526;29;20036;-58
2021/06/23 05:24:00;;;;;;;5.15;0.90;;;;;;;;;;4890409;29;20077;-60
2021/06/23 05:26:25;;;;;;;3.05;0.98;;;;;;;;;;4907010;29;20076;-59
2021/06/23 05:28:51;;;;;;;5.43;1.17;;;;;;;;;;4906826;29;20040;-60
2021/06/23 05:31:17;;;;;;;4.40;0.85;;;;;;;;;;4908724;29;20079;-59
2021/06/23 05:33:43;;;;;;;3.70;0.90;;;;;;;;;;4905740;29;20051;-60
2021/06/23 05:36:09;;;;;;;4.20;0.98;;;;;;;;;;4907972;29;20044;-58
2021/06/23 05:38:35;;;;;;;3.85;0.98;;;;;;;;;;4908779;29;20112;-59
2021/06/23 05:41:01;;;;;;;3.83;0.90;;;;;;;;;;4908324;29;20048;-60
2021/06/23 05:43:27;;;;;;;3.10;0.70;;;;;;;;;;4905332;29;20196;-59
2021/06/23 05:45:52;;;;;;;4.93;1.20;;;;;;;;;;4906888;29;20055;-59
2021/06/23 05:48:18;;;;;;;3.58;0.88;;;;;;;;;;4907893;29;20059;-59
2021/06/23 05:50:45;;;;;;;3.75;0.90;;;;;;;;;;4907597;29;20044;-60
2021/06/23 05:53:11;;;;;;;4.05;0.93;;;;;;;;;;4908215;29;20047;-60
2021/06/23 05:55:39;;;;;;;3.85;0.80;;;;;;;;;;4906088;29;20064;-60
2021/06/23 05:58:05;;;;;;;2.58;0.60;;;;;;;;;;4908945;29;20098;-59
2021/06/23 06:00:31;;;;;;;4.72;0.70;;;;;;;;;;4906990;29;20684;-59
2021/06/23 06:02:57;;;;;;;1.88;0.70;;;;;;;;;;4908517;29;20050;-60
2021/06/23 06:05:23;;;;;;;3.50;0.90;;;;;;;;;;4906633;29;20092;-60
2021/06/23 06:07:50;;;;;;;3.25;0.80;;;;;;;;;;4908044;29;20063;-60
2021/06/23 06:10:16;;;;;;;5.43;1.08;;;;;;;;;;4908183;29;20040;-60
2021/06/23 06:12:42;;;;;;;4.85;0.90;;;;;;;;;;4906895;29;20056;-60
2021/06/23 06:15:08;;;;;;;3.05;0.80;;;;;;;;;;4904829;29;20059;-60
2021/06/23 06:17:34;;;;;;;4.13;0.90;;;;;;;;;;4905471;29;20573;-59
2021/06/23 06:20:00;;;;;;;2.67;0.90;;;;;;;;;;4907713;29;20596;-59
2021/06/23 06:22:27;;;;;;;4.28;0.90;;;;;;;;;;4907826;29;20043;-59
2021/06/23 06:24:53;;;;;;;4.10;0.90;;;;;;;;;;4908042;29;20424;-58
2021/06/23 06:27:19;;;;;;;5.90;1.10;;;;;;;;;;4906853;29;20115;-59
2021/06/23 06:29:45;;;;;;;3.53;0.90;;;;;;;;;;4907285;29;20055;-59
2021/06/23 06:32:11;;;;;;;2.90;0.90;;;;;;;;;;4889912;29;20044;-59
2021/06/23 06:34:37;;;;;;;2.70;1.00;;;;;;;;;;4906355;29;20509;-59
2021/06/23 06:37:03;;;;;;;2.97;1.13;;;;;;;;;;4906196;29;20052;-59
2021/06/23 06:39:29;;;;;;;6.78;0.98;;;;;;;;;;4905684;29;20041;-59
2021/06/23 06:41:54;;;;;;;4.93;1.10;;;;;;;;;;4905600;29;20131;-59
2021/06/23 06:44:21;;;;;;;4.65;1.00;;;;;;;;;;4902635;29;20044;-59
2021/06/23 06:46:47;;;;;;;6.82;0.85;;;;;;;;;;4893148;29;20047;-58
2021/06/23 06:49:13;;;;;;;8.00;0.90;;;;;;;;;;4906911;29;20223;-57
2021/06/23 06:51:39;;;;;;;2.05;0.73;;;;;;;;;;4904574;29;20100;-58
2021/06/23 06:54:05;;;;;;;2.85;0.90;;;;;;;;;;4905431;29;20051;-59
2021/06/23 06:56:31;;;;;;;2.10;0.77;;;;;;;;;;4905130;29;20040;-58
2021/06/23 06:58:56;;;;;;;1.83;0.60;;;;;;;;;;4905956;29;20604;-58
2021/06/23 07:01:22;;;;;;;2.00;0.70;;;;;;;;;;4904556;29;20044;-57
2021/06/23 07:03:48;;;;;;;2.10;0.60;;;;;;;;;;4906338;29;20499;-57
2021/06/23 07:06:14;;;;;;;2.00;0.80;;;;;;;;;;4905700;29;20044;-59
2021/06/23 07:08:40;;;;;;;2.17;0.82;;;;;;;;;;4905385;29;20043;-58
2021/06/23 07:11:06;;;;;;;2.95;0.90;;;;;;;;;;4906805;29;20048;-59
2021/06/23 07:13:32;;;;;;;3.75;0.85;;;;;;;;;;4905279;29;20162;-59
2021/06/23 07:15:57;;;;;;;2.60;0.90;;;;;;;;;;4905284;29;20056;-60
2021/06/23 07:18:24;;;;;;;5.13;1.00;;;;;;;;;;4906039;29;20056;-58
2021/06/23 07:20:50;;;;;;;3.33;1.00;;;;;;;;;;4905464;29;20468;-58
2021/06/23 07:23:15;;;;;;;4.32;1.10;;;;;;;;;;4906073;29;20040;-59
2021/06/23 07:25:41;;;;;;;2.58;0.88;;;;;;;;;;4886702;29;20040;-58
2021/06/23 07:28:10;;;;;;;3.40;1.00;;;;;;;;;;4906291;29;20039;-59
2021/06/23 07:30:36;;;;;;;3.28;1.08;;;;;;;;;;4905291;29;20055;-57
2021/06/23 07:33:05;;;;;;;2.80;0.90;;;;;;;;;;4905554;29;20040;-58
2021/06/23 07:38:15;;;;;;;4.07;1.02;;;;;;;;;;4905952;29;20140;-59
2021/06/23 07:43:26;;;;;;;4.18;1.08;;;;;;;;;;4904586;29;20424;-58
2021/06/23 07:45:54;;;;;;;5.07;1.00;;;;;;;;;;4906311;29;20044;-59
2021/06/23 07:48:20;;;;;;;4.90;1.02;;;;;;;;;;4906477;29;20036;-59
2021/06/23 07:50:52;;;;;;;3.72;1.05;;;;;;;;;;4906542;29;20131;-60
2021/06/23 07:53:31;;;;;;;2.60;1.02;;;;;;;;;;4904774;29;20044;-59
2021/06/23 07:56:11;;;;;;;3.30;1.17;;;;;;;;;;4907637;29;20131;-59
2021/06/23 08:02:50;;;;;;;3.17;1.05;;;;;;;;;;4904653;29;20491;-58
2021/06/23 08:09:42;;;;;;;8.80;1.25;;;;;;;;;;4905015;29;22234;-58
2021/06/23 08:14:37;;;;;;;5.05;1.23;;;;;;;;;;4905140;29;20075;-57
2021/06/23 08:17:03;;;;;;;2.80;1.00;;;;;;;;;;4904178;29;20052;-59
2021/06/23 08:19:29;;;;;;;4.45;1.10;;;;;;;;;;4904696;29;20119;-59
2021/06/23 08:21:54;;;;;;;4.15;1.33;;;;;;;;;;4906943;29;20509;-59
2021/06/23 08:24:21;;;;;;;3.95;0.95;;;;;;;;;;4903733;29;20040;-58
2021/06/23 08:26:47;;;;;;;7.78;1.35;;;;;;;;;;4904325;29;20052;-58
2021/06/23 08:29:12;;;;;;;4.55;1.45;;;;;;;;;;4905453;29;20104;-58
2021/06/23 08:31:38;;;;;;;5.60;1.25;;;;;;;;;;4907092;29;20051;-58
2021/06/23 08:34:04;;;;;;;4.05;1.17;;;;;;;;;;4909081;29;20124;-59
2021/06/23 08:36:30;;;;;;;7.65;1.35;;;;;;;;;;4911204;29;20151;-58
2021/06/23 08:38:55;;;;;;;4.00;1.25;;;;;;;;;;4910503;29;20040;-59
2021/06/23 08:41:31;;;;;;;6.32;1.20;;;;;;;;;;4907549;29;20040;-59
2021/06/23 08:43:57;;;;;;;4.70;1.27;;;;;;;;;;4909509;29;20055;-59
2021/06/23 08:46:24;;;;;;;2.83;1.20;;;;;;;;;;4907090;29;20040;-58
2021/06/23 08:48:50;;;;;;;3.00;1.17;;;;;;;;;;4908386;29;20040;-59
2021/06/23 08:51:16;;;;;;;3.85;1.20;;;;;;;;;;4907677;29;20209;-59
2021/06/23 08:53:42;;;;;;;9.70;1.65;;;;;;;;;;4907925;29;20051;-59
2021/06/23 08:56:07;;;;;;;3.53;1.20;;;;;;;;;;4906336;29;20044;-61
2021/06/23 08:58:34;;;;;;;4.60;1.30;;;;;;;;;;4905364;29;20103;-60
2021/06/23 09:01:00;;;;;;;3.85;1.42;;;;;;;;;;4906358;29;20039;-57
2021/06/23 09:03:26;;;;;;;5.18;1.05;;;;;;;;;;4907118;29;20048;-54
2021/06/23 09:05:55;;;;;;;5.30;1.10;;;;;;;;;;4908166;29;20046;-58
2021/06/23 09:08:29;;;;;;;5.95;1.20;;;;;;;;;;4889456;29;20059;-57
2021/06/23 09:10:56;;;;;;;8.65;1.40;;;;;;;;;;4907799;29;20119;-56
2021/06/23 09:13:22;;;;;;;3.20;1.10;;;;;;;;;;4906962;29;20405;-56
2021/06/23 09:15:55;;;;;;;2.78;1.02;;;;;;;;;;4906271;29;20052;-53
2021/06/23 09:18:21;;;;;;;;;;;;;;;;;;4907190;29;20689;-56
2021/06/23 09:20:48;;;;;;;2.78;1.00;;;;;;;;;;4907135;29;19957;-57
2021/06/23 09:23:14;;;;;;;4.93;1.35;;;;;;;;;;4907270;29;20036;-56
2021/06/23 09:25:44;;;;;;;3.80;1.10;;;;;;;;;;4904672;29;20039;-58
2021/06/23 09:28:17;;;;;;;5.07;1.33;;;;;;;;;;4906349;29;20126;-55
2021/06/23 09:30:44;;;;;;;3.38;0.60;;;;;;;;;;4906020;29;20598;-56
2021/06/23 09:33:12;;;;;;;3.08;1.20;;;;;;;;;;4907761;29;20068;-57
2021/06/23 09:35:39;;;;;;;2.30;0.88;;;;;;;;;;4905960;29;20048;-57
2021/06/23 09:38:05;;;;;;;4.82;1.23;;;;;;;;;;4908479;29;20059;-55
2021/06/23 09:40:32;;;;;;;4.53;1.10;;;;;;;;;;4905395;29;20048;-56
2021/06/23 09:43:01;;;;;;;3.45;1.02;;;;;;;;;;4905859;29;20546;-57
2021/06/23 09:45:29;;;;;;;15.10;1.13;;;;;;;;;;4904559;29;20036;-54
2021/06/23 09:47:58;;;;;;;7.95;1.30;;;;;;;;;;4906223;29;20075;-56
2021/06/23 09:50:27;;;;;;;2.92;1.05;;;;;;;;;;4906017;29;20036;-57
2021/06/23 09:52:55;;;;;;;3.33;1.00;;;;;;;;;;4906318;29;20118;-56
2021/06/23 09:55:32;;;;;;;3.28;1.00;;;;;;;;;;4906373;29;20043;-57
2021/06/23 09:58:07;;;;;;;5.50;0.95;;;;;;;;;;4905774;29;20463;-55
2021/06/23 10:00:34;;;;;;;7.28;1.10;;;;;;;;;;4903816;29;20410;-55
2021/06/23 10:03:04;;;;;;;4.93;1.10;;;;;;;;;;4906571;29;20048;-56
2021/06/23 10:05:31;;;;;;;2.65;1.00;;;;;;;;;;4888155;29;20063;-55
2021/06/23 10:07:57;;;;;;;2.92;0.90;;;;;;;;;;4906247;29;20055;-55
2021/06/23 10:10:41;;;;;;;6.38;1.17;;;;;;;;;;4905220;29;20040;-57
2021/06/23 10:13:06;;;;;;;6.05;1.33;;;;;;;;;;4904610;29;20055;-57
2021/06/23 10:15:33;;;;;;;2.17;0.80;;;;;;;;;;4903920;29;20056;-55
2021/06/23 10:17:59;;;;;;;3.13;1.10;;;;;;;;;;4906291;29;20174;-56
2021/06/23 10:20:25;;;;;;;3.17;1.20;;;;;;;;;;4905347;29;20068;-58
2021/06/23 10:22:51;;;;;;;4.72;1.15;;;;;;;;;;4907204;29;20132;-55
2021/06/23 10:25:17;;;;;;;2.25;0.80;;;;;;;;;;4887260;29;20047;-56
2021/06/23 10:27:45;;;;;;;3.80;1.10;;;;;;;;;;4903054;29;20036;-56
2021/06/23 10:30:12;;;;;;;3.67;0.93;;;;;;;;;;4907382;29;20070;-57
2021/06/23 10:32:38;;;;;;;6.78;1.15;;;;;;;;;;4905197;29;20044;-56
2021/06/23 10:35:05;;;;;;;2.97;1.08;;;;;;;;;;4905829;29;20071;-55
2021/06/23 10:37:36;;;;;;;3.45;1.10;;;;;;;;;;4904614;29;20060;-57
2021/06/23 10:40:03;;;;;;;4.35;1.10;;;;;;;;;;4905683;29;20071;-57
2021/06/23 10:42:30;;;;;;;2.75;1.10;;;;;;;;;;4904275;29;20040;-56
2021/06/23 10:44:56;;;;;;;2.70;1.00;;;;;;;;;;4905357;29;20044;-56
2021/06/23 10:47:34;;;;;;;3.17;0.98;;;;;;;;;;4905070;29;20045;-56
2021/06/23 10:50:00;;;;;;;2.83;1.17;;;;;;;;;;4905742;29;20040;-57
2021/06/23 10:52:27;;;;;;;4.68;1.05;;;;;;;;;;4906008;29;20118;-56
2021/06/23 10:54:54;;;;;;;3.97;1.15;;;;;;;;;;4905256;29;20054;-56
2021/06/23 10:57:26;;;;;;;4.15;0.98;;;;;;;;;;4904947;29;20144;-59
2021/06/23 10:59:52;;;;;;;4.30;1.23;;;;;;;;;;4888436;29;20047;-57
2021/06/23 11:02:26;;;;;;;5.10;1.08;;;;;;;;;;4903392;29;20466;-55
2021/06/23 11:05:00;;;;;;;3.38;1.20;;;;;;;;;;4905358;29;20046;-56
2021/06/23 11:07:35;;;;;;;4.13;1.00;;;;;;;;;;4906295;29;20194;-55
2021/06/23 11:10:16;;;;;;;3.63;1.13;;;;;;;;;;4907324;29;20127;-57
2021/06/23 11:12:48;;;;;;;3.17;1.05;;;;;;;;;;4903944;29;20052;-57
2021/06/23 11:15:18;;;;;;;5.03;1.05;;;;;;;;;;4904708;29;20102;-55
2021/06/23 11:17:47;;;;;;;4.50;1.00;;;;;;;;;;4904262;29;20056;-58
2021/06/23 11:20:19;;;;;;;3.30;1.40;;;;;;;;;;4906170;29;20040;-57
2021/06/23 11:22:48;;;;;;;3.22;1.33;;;;;;;;;;4904204;29;20075;-58
2021/06/23 11:25:23;;;;;;;4.43;1.25;;;;;;;;;;4903492;29;20497;-55
2021/06/23 11:28:21;;;;;;;4.18;1.20;;;;;;;;;;4904678;29;21071;-56
2021/06/23 11:30:50;;;;;;;5.25;1.20;;;;;;;;;;4851360;29;20050;-57
2021/06/23 11:33:28;;;;;;;6.10;1.20;;;;;;;;;;4905433;29;20074;-56
2021/06/23 11:35:58;;;;;;;4.30;1.38;;;;;;;;;;4904256;29;20051;-54
2021/06/23 11:38:25;;;;;;;10.63;1.30;;;;;;;;;;4903420;29;20056;-58
2021/06/23 11:40:51;;;;;;;4.28;1.08;;;;;;;;;;4904766;29;20104;-56
2021/06/23 11:43:17;;;;;;;6.45;1.25;;;;;;;;;;4905029;29;20039;-57
2021/06/23 11:45:46;;;;;;;6.28;1.50;;;;;;;;;;4904793;29;20460;-57
2021/06/23 11:48:12;;;;;;;5.28;1.20;;;;;;;;;;4906075;29;20119;-57
2021/06/23 11:50:40;;;;;;;3.00;1.30;;;;;;;;;;4903611;29;20127;-56
2021/06/23 11:53:08;;;;;;;4.40;1.45;;;;;;;;;;4904428;29;20036;-56
2021/06/23 11:55:33;;;;;;;4.65;1.38;;;;;;;;;;4904138;29;20825;-56
2021/06/23 11:58:00;;;;;;;3.35;1.13;;;;;;;;;;4888028;29;20056;-55
2021/06/23 12:00:27;;;;;;;2.95;1.20;;;;;;;;;;4904374;29;20565;-56
2021/06/23 12:06:14;;;;;;;5.70;1.30;;;;;;;;;;4905454;29;20046;-57
2021/06/23 12:08:39;;;;;;;3.35;1.20;;;;;;;;;;4907834;29;20048;-57
2021/06/23 12:11:05;;;;;;;3.92;1.30;;;;;;;;;;4908354;29;20048;-57
2021/06/23 12:13:31;;;;;;;3.17;1.30;;;;;;;;;;4906386;29;20047;-58
2021/06/23 12:15:57;;;;;;;3.40;1.38;;;;;;;;;;4906630;29;20094;-57
2021/06/23 12:18:23;;;;;;;3.75;1.35;;;;;;;;;;4902573;29;20047;-56
2021/06/23 12:20:48;;;;;;;3.25;1.13;;;;;;;;;;4907034;29;20770;-55
2021/06/23 12:23:14;;;;;;;3.42;1.30;;;;;;;;;;4907956;29;20047;-61
2021/06/23 12:25:44;;;;;;;4.93;1.60;;;;;;;;;;4908439;29;20596;-59
2021/06/23 12:28:12;;;;;;;4.20;1.15;;;;;;;;;;4908200;29;20561;-61
2021/06/23 12:30:39;;;;;;;6.20;1.40;;;;;;;;;;4908396;29;21393;-62
2021/06/23 12:33:07;;;;;;;3.97;1.40;;;;;;;;;;4890716;29;20047;-61
2021/06/23 12:35:33;;;;;;;2.83;1.10;;;;;;;;;;4906209;29;20471;-59
2021/06/23 12:37:59;;;;;;;4.68;1.25;;;;;;;;;;4908381;29;20052;-61
2021/06/23 12:40:24;;;;;;;4.00;1.38;;;;;;;;;;4910338;29;20035;-61
2021/06/23 12:42:50;;;;;;;4.65;1.35;;;;;;;;;;4909166;29;20454;-64
2021/06/23 12:45:16;;;;;;;11.57;1.33;;;;;;;;;;4907799;29;20044;-61
2021/06/23 12:47:42;;;;;;;3.88;1.27;;;;;;;;;;4908568;29;20047;-60
2021/06/23 12:50:09;;;;;;;4.75;1.52;;;;;;;;;;4908971;29;20051;-58
2021/06/23 12:52:35;;;;;;;2.97;1.10;;;;;;;;;;4905649;29;20047;-60
2021/06/23 12:55:01;;;;;;;3.33;1.30;;;;;;;;;;4907518;29;20036;-62
2021/06/23 12:57:27;;;;;;;3.10;1.10;;;;;;;;;;4906418;29;20187;-60
2021/06/23 12:59:53;;;;;;;6.63;1.33;;;;;;;;;;4890052;29;20040;-60
2021/06/23 13:02:19;;;;;;;3.35;1.20;;;;;;;;;;4906290;29;20127;-59
2021/06/23 13:04:45;;;;;;;6.00;1.05;;;;;;;;;;4877978;29;20040;-60
2021/06/23 13:07:11;;;;;;;5.32;0.90;;;;;;;;;;4907502;29;20044;-59
2021/06/23 13:09:37;;;;;;;5.63;1.10;;;;;;;;;;4905313;29;20127;-57
2021/06/23 13:12:03;;;;;;;4.35;1.20;;;;;;;;;;4905036;29;20440;-58
2021/06/23 13:14:29;;;;;;;5.22;1.02;;;;;;;;;;4905799;29;20055;-55
2021/06/23 13:16:55;;;;;;;9.25;1.13;;;;;;;;;;4906715;29;20043;-57
2021/06/23 13:19:20;;;;;;;3.40;1.05;;;;;;;;;;4904785;29;21250;-56
2021/06/23 13:21:47;;;;;;;4.00;0.93;;;;;;;;;;4906261;29;20040;-57
2021/06/23 13:24:13;;;;;;;4.70;1.10;;;;;;;;;;4908522;29;20076;-57
2021/06/23 13:26:39;;;;;;;3.17;1.00;;;;;;;;;;4906278;29;20122;-57
2021/06/23 13:29:05;;;;;;;3.35;1.20;;;;;;;;;;4904854;29;20525;-57
2021/06/23 13:31:30;;;;;;;3.20;0.93;;;;;;;;;;4905392;29;20044;-57
2021/06/23 13:33:56;;;;;;;3.00;0.80;;;;;;;;;;4906763;29;20059;-58
2021/06/23 13:36:22;;;;;;;3.58;0.90;;;;;;;;;;4906323;29;20171;-58
2021/06/23 13:38:48;;;;;;;2.85;0.77;;;;;;;;;;4906480;29;20060;-58
2021/06/23 13:41:14;;;;;;;2.75;0.73;;;;;;;;;;4905551;29;20055;-57
2021/06/23 13:43:40;;;;;;;3.95;1.10;;;;;;;;;;4904138;29;20111;-57
2021/06/23 13:46:06;;;;;;;2.90;0.80;;;;;;;;;;4906794;29;20043;-57
2021/06/23 13:48:31;;;;;;;2.85;0.85;;;;;;;;;;4905915;29;20694;-56
2021/06/23 13:50:57;;;;;;;3.65;1.00;;;;;;;;;;4907685;29;20115;-57
2021/06/23 13:53:23;;;;;;;2.30;0.80;;;;;;;;;;4904547;29;22442;-60
2021/06/23 13:55:49;;;;;;;2.13;0.70;;;;;;;;;;4906611;29;20401;-56
2021/06/23 13:58:15;;;;;;;4.68;1.10;;;;;;;;;;4905645;29;20159;-57
2021/06/23 14:00:42;;;;;;;2.53;0.90;;;;;;;;;;4907136;29;20039;-58
2021/06/23 14:03:08;;;;;;;2.15;0.75;;;;;;;;;;4907372;29;20537;-56
2021/06/23 14:05:35;;;;;;;4.00;0.98;;;;;;;;;;4907024;29;20122;-58
2021/06/23 14:08:02;;;;;;;3.78;0.80;;;;;;;;;;4908593;29;20047;-57
2021/06/23 14:10:28;;;;;;;1.88;0.57;;;;;;;;;;4906484;29;20076;-58
2021/06/23 14:12:54;;;;;;;2.10;0.60;;;;;;;;;;4907151;29;20048;-57
2021/06/23 14:15:20;;;;;;;3.03;0.80;;;;;;;;;;4903838;29;20132;-59
2021/06/23 14:17:46;;;;;;;3.15;0.68;;;;;;;;;;4907250;29;21002;-57
2021/06/23 14:20:15;;;;;;;5.68;0.85;;;;;;;;;;4906683;29;20042;-58
2021/06/23 14:22:41;;;;;;;3.72;0.98;;;;;;;;;;4905262;29;20103;-58
2021/06/23 14:25:07;;;;;;;3.40;0.82;;;;;;;;;;4906043;29;20048;-57
2021/06/23 14:27:33;;;;;;;5.30;1.00;;;;;;;;;;4905992;29;20047;-58
2021/06/23 14:30:01;;;;;;;4.15;0.80;;;;;;;;;;4904112;29;20111;-57
2021/06/23 14:32:27;;;;;;;5.72;1.00;;;;;;;;;;4905225;29;20048;-57
2021/06/23 14:34:53;;;;;;;6.72;1.00;;;;;;;;;;4907034;29;20048;-57
2021/06/23 14:37:19;;;;;;;9.52;0.95;;;;;;;;;;4905295;29;20959;-58
2021/06/23 14:39:45;;;;;;;4.88;0.90;;;;;;;;;;4906790;29;20131;-58
2021/06/23 14:42:11;;;;;;;3.83;0.77;;;;;;;;;;4906595;29;20040;-58
2021/06/23 14:44:36;;;;;;;4.40;0.80;;;;;;;;;;4905647;29;20127;-58
2021/06/23 14:47:02;;;;;;;6.93;0.93;;;;;;;;;;4907754;29;20689;-58
2021/06/23 14:49:28;;;;;;;4.18;0.88;;;;;;;;;;4906235;29;20044;-57
2021/06/23 14:51:54;;;;;;;8.98;0.73;;;;;;;;;;4906226;29;20445;-58
2021/06/23 14:54:20;;;;;;;4.05;0.70;;;;;;;;;;4905923;29;20059;-58
2021/06/23 14:56:46;;;;;;;1.60;0.60;;;;;;;;;;4906446;29;20036;-58
2021/06/23 14:59:12;;;;;;;3.30;0.75;;;;;;;;;;4906682;29;20096;-58
2021/06/23 15:01:38;;;;;;;3.42;0.65;;;;;;;;;;4905087;29;20227;-59